sensor_id;sensor_type;location;lat;lon;timestamp;P1;durP1;ratioP1;P2;durP2;ratioP2
13204;SDS011;6667;52.634;9.226;2022-09-20T04:33:44;3.77;;;2.03;;
13204;SDS011;6667;52.634;9.226;2022-09-20T04:36:17;9.47;;;2.77;;
13204;SDS011;6667;52.634;9.226;2022-09-20T04:38:58;4.60;;;1.87;;
13204;SDS011;6667;52.634;9.226;2022-09-20T04:44:47;4.40;;;1.80;;
13204;SDS011;6667;52.634;9.226;2022-09-20T04:47:55;6.07;;;1.83;;
13204;SDS011;6667;52.634;9.226;2022-09-20T04:51:19;7.00;;;2.30;;
13204;SDS011;6667;52.634;9.226;2022-09-20T04:54:21;6.53;;;2.00;;
13204;SDS011;6667;52.634;9.226;2022-09-20T04:57:18;5.43;;;1.90;;
13204;SDS011;6667;52.634;9.226;2022-09-20T05:00:07;7.17;;;1.83;;
13204;SDS011;6667;52.634;9.226;2022-09-20T05:02:44;6.53;;;1.93;;
13204;SDS011;6667;52.634;9.226;2022-09-20T05:05:41;5.10;;;2.23;;
13204;SDS011;6667;52.634;9.226;2022-09-20T05:08:32;3.97;;;1.67;;
13204;SDS011;6667;52.634;9.226;2022-09-20T05:11:45;5.63;;;1.77;;
13204;SDS011;6667;52.634;9.226;2022-09-20T05:14:29;5.57;;;2.20;;
13204;SDS011;6667;52.634;9.226;2022-09-20T05:17:10;4.97;;;1.93;;
13204;SDS011;6667;52.634;9.226;2022-09-20T05:19:45;5.00;;;1.97;;
13204;SDS011;6667;52.634;9.226;2022-09-20T05:22:31;6.80;;;2.13;;
13204;SDS011;6667;52.634;9.226;2022-09-20T05:25:27;5.60;;;2.20;;
13204;SDS011;6667;52.634;9.226;2022-09-20T05:28:07;9.40;;;2.50;;
13204;SDS011;6667;52.634;9.226;2022-09-20T05:30:40;4.37;;;1.90;;
13204;SDS011;6667;52.634;9.226;2022-09-20T05:33:13;8.03;;;2.80;;
13204;SDS011;6667;52.634;9.226;2022-09-20T05:35:47;7.47;;;1.87;;
13204;SDS011;6667;52.634;9.226;2022-09-20T05:38:27;4.00;;;1.77;;
13204;SDS011;6667;52.634;9.226;2022-09-20T05:41:05;5.60;;;2.20;;
13204;SDS011;6667;52.634;9.226;2022-09-20T05:43:38;7.73;;;2.30;;
13204;SDS011;6667;52.634;9.226;2022-09-20T05:46:16;4.10;;;1.97;;
13204;SDS011;6667;52.634;9.226;2022-09-20T05:48:58;6.40;;;2.60;;
13204;SDS011;6667;52.634;9.226;2022-09-20T05:51:39;7.87;;;2.23;;
13204;SDS011;6667;52.634;9.226;2022-09-20T05:54:19;4.47;;;2.40;;
13204;SDS011;6667;52.634;9.226;2022-09-20T05:57:09;6.63;;;2.30;;
13204;SDS011;6667;52.634;9.226;2022-09-20T05:59:46;8.67;;;2.13;;
13204;SDS011;6667;52.634;9.226;2022-09-20T06:02:27;6.27;;;2.27;;
13204;SDS011;6667;52.634;9.226;2022-09-20T06:05:01;7.73;;;2.23;;
13204;SDS011;6667;52.634;9.226;2022-09-20T06:07:39;5.90;;;2.70;;
13204;SDS011;6667;52.634;9.226;2022-09-20T06:10:35;7.27;;;2.33;;
13204;SDS011;6667;52.634;9.226;2022-09-20T06:13:21;8.73;;;2.17;;
13204;SDS011;6667;52.634;9.226;2022-09-20T06:15:59;7.40;;;2.17;;
13204;SDS011;6667;52.634;9.226;2022-09-20T06:18:29;4.43;;;2.00;;
13204;SDS011;6667;52.634;9.226;2022-09-20T06:21:03;4.07;;;2.13;;
13204;SDS011;6667;52.634;9.226;2022-09-20T06:23:38;5.57;;;1.90;;
13204;SDS011;6667;52.634;9.226;2022-09-20T06:26:06;6.70;;;1.93;;
13204;SDS011;6667;52.634;9.226;2022-09-20T06:28:37;6.33;;;2.00;;
13204;SDS011;6667;52.634;9.226;2022-09-20T06:31:06;6.10;;;2.07;;
13204;SDS011;6667;52.634;9.226;2022-09-20T06:33:38;6.90;;;2.40;;
13204;SDS011;6667;52.634;9.226;2022-09-20T06:36:09;6.50;;;2.17;;
13204;SDS011;6667;52.634;9.226;2022-09-20T06:38:59;3.90;;;2.00;;
13204;SDS011;6667;52.634;9.226;2022-09-20T06:41:49;6.57;;;2.00;;
13204;SDS011;6667;52.634;9.226;2022-09-20T06:44:17;5.17;;;2.20;;
13204;SDS011;6667;52.634;9.226;2022-09-20T06:46:44;6.90;;;2.23;;
13204;SDS011;6667;52.634;9.226;2022-09-20T06:49:10;15.23;;;2.47;;
13204;SDS011;6667;52.634;9.226;2022-09-20T06:51:37;5.80;;;2.80;;
13204;SDS011;6667;52.634;9.226;2022-09-20T06:54:05;5.07;;;2.17;;
13204;SDS011;6667;52.634;9.226;2022-09-20T06:56:35;6.27;;;2.30;;
13204;SDS011;6667;52.634;9.226;2022-09-20T06:59:02;4.40;;;2.00;;
13204;SDS011;6667;52.634;9.226;2022-09-20T07:01:31;5.20;;;2.33;;
13204;SDS011;6667;52.634;9.226;2022-09-20T07:03:57;7.17;;;2.47;;
13204;SDS011;6667;52.634;9.226;2022-09-20T07:06:25;7.13;;;2.10;;
13204;SDS011;6667;52.634;9.226;2022-09-20T07:08:53;7.50;;;2.73;;
13204;SDS011;6667;52.634;9.226;2022-09-20T07:11:20;8.83;;;2.33;;
13204;SDS011;6667;52.634;9.226;2022-09-20T07:13:48;4.37;;;2.10;;
13204;SDS011;6667;52.634;9.226;2022-09-20T07:16:16;6.97;;;2.40;;
13204;SDS011;6667;52.634;9.226;2022-09-20T07:18:45;10.37;;;3.03;;
13204;SDS011;6667;52.634;9.226;2022-09-20T07:21:13;9.33;;;2.63;;
13204;SDS011;6667;52.634;9.226;2022-09-20T07:23:41;6.47;;;1.73;;
13204;SDS011;6667;52.634;9.226;2022-09-20T07:26:12;7.73;;;2.53;;
13204;SDS011;6667;52.634;9.226;2022-09-20T07:28:43;4.73;;;1.90;;
13204;SDS011;6667;52.634;9.226;2022-09-20T07:31:09;7.03;;;2.27;;
13204;SDS011;6667;52.634;9.226;2022-09-20T07:33:36;10.27;;;2.57;;
13204;SDS011;6667;52.634;9.226;2022-09-20T07:36:04;7.37;;;2.10;;
13204;SDS011;6667;52.634;9.226;2022-09-20T07:38:31;2.73;;;1.50;;
13204;SDS011;6667;52.634;9.226;2022-09-20T07:40:58;7.17;;;2.10;;
13204;SDS011;6667;52.634;9.226;2022-09-20T07:43:26;9.90;;;2.47;;
13204;SDS011;6667;52.634;9.226;2022-09-20T07:45:54;6.37;;;2.20;;
13204;SDS011;6667;52.634;9.226;2022-09-20T07:48:22;6.47;;;2.13;;
13204;SDS011;6667;52.634;9.226;2022-09-20T07:50:50;4.57;;;1.80;;
13204;SDS011;6667;52.634;9.226;2022-09-20T07:53:19;5.17;;;1.90;;
13204;SDS011;6667;52.634;9.226;2022-09-20T07:55:54;4.97;;;1.80;;
13204;SDS011;6667;52.634;9.226;2022-09-20T07:58:22;5.47;;;2.00;;
13204;SDS011;6667;52.634;9.226;2022-09-20T08:00:50;5.03;;;2.03;;
13204;SDS011;6667;52.634;9.226;2022-09-20T08:03:18;6.27;;;1.70;;
13204;SDS011;6667;52.634;9.226;2022-09-20T08:05:44;8.37;;;2.30;;
13204;SDS011;6667;52.634;9.226;2022-09-20T08:08:11;7.80;;;1.90;;
13204;SDS011;6667;52.634;9.226;2022-09-20T08:10:39;5.27;;;1.60;;
13204;SDS011;6667;52.634;9.226;2022-09-20T08:13:06;3.67;;;1.50;;
13204;SDS011;6667;52.634;9.226;2022-09-20T08:15:33;5.37;;;1.47;;
13204;SDS011;6667;52.634;9.226;2022-09-20T08:18:00;4.93;;;1.83;;
13204;SDS011;6667;52.634;9.226;2022-09-20T08:20:26;6.50;;;1.67;;
13204;SDS011;6667;52.634;9.226;2022-09-20T08:22:53;4.17;;;1.57;;
13204;SDS011;6667;52.634;9.226;2022-09-20T08:25:20;7.03;;;1.73;;
13204;SDS011;6667;52.634;9.226;2022-09-20T08:27:52;7.50;;;1.80;;
13204;SDS011;6667;52.634;9.226;2022-09-20T08:30:18;4.17;;;1.57;;
13204;SDS011;6667;52.634;9.226;2022-09-20T08:32:45;8.47;;;1.70;;
13204;SDS011;6667;52.634;9.226;2022-09-20T08:35:12;3.47;;;1.43;;
13204;SDS011;6667;52.634;9.226;2022-09-20T08:37:39;2.70;;;1.47;;
13204;SDS011;6667;52.634;9.226;2022-09-20T08:40:08;2.10;;;1.30;;
13204;SDS011;6667;52.634;9.226;2022-09-20T08:42:37;4.03;;;1.27;;
13204;SDS011;6667;52.634;9.226;2022-09-20T08:45:11;6.67;;;1.63;;
13204;SDS011;6667;52.634;9.226;2022-09-20T08:47:44;4.87;;;1.33;;
13204;SDS011;6667;52.634;9.226;2022-09-20T08:50:14;3.20;;;1.47;;
13204;SDS011;6667;52.634;9.226;2022-09-20T08:52:43;7.47;;;1.60;;
13204;SDS011;6667;52.634;9.226;2022-09-20T08:55:12;4.77;;;1.50;;
13204;SDS011;6667;52.634;9.226;2022-09-20T08:57:41;4.53;;;1.30;;
13204;SDS011;6667;52.634;9.226;2022-09-20T09:00:13;6.47;;;2.03;;
13204;SDS011;6667;52.634;9.226;2022-09-20T09:02:42;6.80;;;2.33;;
13204;SDS011;6667;52.634;9.226;2022-09-20T09:05:11;3.20;;;1.80;;
13204;SDS011;6667;52.634;9.226;2022-09-20T09:07:52;4.03;;;1.60;;
13204;SDS011;6667;52.634;9.226;2022-09-20T09:10:19;3.10;;;1.50;;
13204;SDS011;6667;52.634;9.226;2022-09-20T09:12:45;4.23;;;1.30;;
13204;SDS011;6667;52.634;9.226;2022-09-20T09:15:20;4.20;;;1.30;;
13204;SDS011;6667;52.634;9.226;2022-09-20T09:17:50;3.03;;;1.27;;
13204;SDS011;6667;52.634;9.226;2022-09-20T09:20:19;5.83;;;1.20;;
13204;SDS011;6667;52.634;9.226;2022-09-20T09:22:47;2.07;;;1.30;;
13204;SDS011;6667;52.634;9.226;2022-09-20T09:25:24;2.37;;;1.00;;
13204;SDS011;6667;52.634;9.226;2022-09-20T09:27:56;3.40;;;1.20;;
13204;SDS011;6667;52.634;9.226;2022-09-20T09:30:27;6.70;;;1.40;;
13204;SDS011;6667;52.634;9.226;2022-09-20T09:33:15;3.60;;;1.40;;
13204;SDS011;6667;52.634;9.226;2022-09-20T09:35:53;4.37;;;1.13;;
13204;SDS011;6667;52.634;9.226;2022-09-20T09:38:23;2.97;;;1.00;;
13204;SDS011;6667;52.634;9.226;2022-09-20T09:40:52;4.10;;;1.27;;
13204;SDS011;6667;52.634;9.226;2022-09-20T09:43:20;4.70;;;1.07;;
13204;SDS011;6667;52.634;9.226;2022-09-20T09:45:52;6.23;;;2.23;;
13204;SDS011;6667;52.634;9.226;2022-09-20T09:48:22;3.97;;;1.10;;
13204;SDS011;6667;52.634;9.226;2022-09-20T09:51:05;3.07;;;0.93;;
13204;SDS011;6667;52.634;9.226;2022-09-20T09:53:33;3.27;;;1.60;;
13204;SDS011;6667;52.634;9.226;2022-09-20T09:56:04;4.27;;;1.20;;
13204;SDS011;6667;52.634;9.226;2022-09-20T09:58:49;5.30;;;1.20;;
13204;SDS011;6667;52.634;9.226;2022-09-20T10:01:28;7.40;;;1.40;;
13204;SDS011;6667;52.634;9.226;2022-09-20T10:04:03;7.43;;;1.50;;
13204;SDS011;6667;52.634;9.226;2022-09-20T10:06:39;4.93;;;1.60;;
13204;SDS011;6667;52.634;9.226;2022-09-20T10:09:15;3.70;;;1.10;;
13204;SDS011;6667;52.634;9.226;2022-09-20T10:11:59;4.47;;;1.23;;
13204;SDS011;6667;52.634;9.226;2022-09-20T10:14:41;3.67;;;1.05;;
13204;SDS011;6667;52.634;9.226;2022-09-20T10:17:26;3.20;;;1.00;;
13204;SDS011;6667;52.634;9.226;2022-09-20T10:20:05;2.88;;;1.00;;
13204;SDS011;6667;52.634;9.226;2022-09-20T10:22:48;3.67;;;1.30;;
13204;SDS011;6667;52.634;9.226;2022-09-20T10:25:24;5.20;;;1.30;;
13204;SDS011;6667;52.634;9.226;2022-09-20T10:28:03;2.10;;;1.17;;
13204;SDS011;6667;52.634;9.226;2022-09-20T10:30:43;3.60;;;0.80;;
13204;SDS011;6667;52.634;9.226;2022-09-20T10:33:23;5.15;;;0.80;;
13204;SDS011;6667;52.634;9.226;2022-09-20T10:35:59;1.80;;;0.70;;
13204;SDS011;6667;52.634;9.226;2022-09-20T10:38:33;2.03;;;0.70;;
13204;SDS011;6667;52.634;9.226;2022-09-20T10:41:07;5.97;;;1.45;;
13204;SDS011;6667;52.634;9.226;2022-09-20T10:44:04;3.40;;;0.90;;
13204;SDS011;6667;52.634;9.226;2022-09-20T10:46:58;3.50;;;1.10;;
13204;SDS011;6667;52.634;9.226;2022-09-20T10:49:34;3.10;;;0.88;;
13204;SDS011;6667;52.634;9.226;2022-09-20T10:52:11;3.22;;;1.05;;
13204;SDS011;6667;52.634;9.226;2022-09-20T10:54:53;1.98;;;0.90;;
13204;SDS011;6667;52.634;9.226;2022-09-20T10:57:43;3.40;;;1.27;;
13204;SDS011;6667;52.634;9.226;2022-09-20T11:00:24;3.42;;;0.93;;
13204;SDS011;6667;52.634;9.226;2022-09-20T11:03:06;4.63;;;0.90;;
13204;SDS011;6667;52.634;9.226;2022-09-20T11:05:50;3.80;;;0.90;;
13204;SDS011;6667;52.634;9.226;2022-09-20T11:08:27;2.63;;;1.20;;
13204;SDS011;6667;52.634;9.226;2022-09-20T11:10:58;3.15;;;1.10;;
13204;SDS011;6667;52.634;9.226;2022-09-20T11:13:34;2.22;;;0.70;;
13204;SDS011;6667;52.634;9.226;2022-09-20T11:16:07;1.98;;;0.80;;
13204;SDS011;6667;52.634;9.226;2022-09-20T11:18:38;2.55;;;0.60;;
13204;SDS011;6667;52.634;9.226;2022-09-20T11:21:12;3.25;;;1.10;;
13204;SDS011;6667;52.634;9.226;2022-09-20T11:23:44;2.83;;;0.65;;
13204;SDS011;6667;52.634;9.226;2022-09-20T11:26:18;4.38;;;0.93;;
13204;SDS011;6667;52.634;9.226;2022-09-20T11:28:51;2.63;;;0.63;;
13204;SDS011;6667;52.634;9.226;2022-09-20T11:31:21;2.20;;;0.85;;
13204;SDS011;6667;52.634;9.226;2022-09-20T11:33:52;1.33;;;0.70;;
13204;SDS011;6667;52.634;9.226;2022-09-20T11:36:25;2.15;;;0.90;;
13204;SDS011;6667;52.634;9.226;2022-09-20T11:38:59;1.63;;;0.50;;
13204;SDS011;6667;52.634;9.226;2022-09-20T11:41:30;1.98;;;0.65;;
13204;SDS011;6667;52.634;9.226;2022-09-20T11:43:58;1.02;;;0.55;;
13204;SDS011;6667;52.634;9.226;2022-09-20T11:46:28;1.25;;;0.45;;
13204;SDS011;6667;52.634;9.226;2022-09-20T11:49:00;1.17;;;0.57;;
13204;SDS011;6667;52.634;9.226;2022-09-20T11:51:41;3.03;;;0.63;;
13204;SDS011;6667;52.634;9.226;2022-09-20T11:54:40;1.80;;;0.70;;
13204;SDS011;6667;52.634;9.226;2022-09-20T11:57:22;1.17;;;0.50;;
13204;SDS011;6667;52.634;9.226;2022-09-20T11:59:51;5.05;;;0.90;;
13204;SDS011;6667;52.634;9.226;2022-09-20T12:02:21;2.13;;;0.68;;
13204;SDS011;6667;52.634;9.226;2022-09-20T12:04:51;1.55;;;0.98;;
13204;SDS011;6667;52.634;9.226;2022-09-20T12:07:21;4.10;;;1.00;;
13204;SDS011;6667;52.634;9.226;2022-09-20T12:09:53;3.28;;;0.70;;
13204;SDS011;6667;52.634;9.226;2022-09-20T12:12:27;2.28;;;0.85;;
13204;SDS011;6667;52.634;9.226;2022-09-20T12:14:58;0.85;;;0.63;;
13204;SDS011;6667;52.634;9.226;2022-09-20T12:26:43;0.90;;;0.50;;
13204;SDS011;6667;52.634;9.226;2022-09-20T12:32:32;1.65;;;0.60;;
13204;SDS011;6667;52.634;9.226;2022-09-20T12:38:21;2.83;;;1.10;;
13204;SDS011;6667;52.634;9.226;2022-09-20T12:40:59;3.43;;;1.20;;
13204;SDS011;6667;52.634;9.226;2022-09-20T12:43:29;4.70;;;0.93;;
13204;SDS011;6667;52.634;9.226;2022-09-20T12:45:58;3.33;;;0.90;;
13204;SDS011;6667;52.634;9.226;2022-09-20T12:48:26;2.47;;;1.40;;
13204;SDS011;6667;52.634;9.226;2022-09-20T12:51:01;1.03;;;0.40;;
13204;SDS011;6667;52.634;9.226;2022-09-20T12:53:57;3.20;;;1.30;;
13204;SDS011;6667;52.634;9.226;2022-09-20T12:56:25;3.03;;;0.67;;
13204;SDS011;6667;52.634;9.226;2022-09-20T12:58:54;2.67;;;0.80;;
13204;SDS011;6667;52.634;9.226;2022-09-20T13:01:35;1.97;;;0.57;;
13204;SDS011;6667;52.634;9.226;2022-09-20T13:10:19;1.33;;;0.40;;
13204;SDS011;6667;52.634;9.226;2022-09-20T13:13:04;1.30;;;0.47;;
13204;SDS011;6667;52.634;9.226;2022-09-20T13:15:47;3.45;;;0.65;;
13204;SDS011;6667;52.634;9.226;2022-09-20T13:18:15;1.97;;;0.63;;
13204;SDS011;6667;52.634;9.226;2022-09-20T13:20:44;1.27;;;0.60;;
13204;SDS011;6667;52.634;9.226;2022-09-20T13:23:15;1.52;;;0.50;;
13204;SDS011;6667;52.634;9.226;2022-09-20T13:25:45;1.20;;;0.60;;
13204;SDS011;6667;52.634;9.226;2022-09-20T13:28:15;1.58;;;0.50;;
13204;SDS011;6667;52.634;9.226;2022-09-20T13:30:50;2.38;;;0.70;;
13204;SDS011;6667;52.634;9.226;2022-09-20T13:33:54;1.90;;;0.57;;
13204;SDS011;6667;52.634;9.226;2022-09-20T13:36:36;4.30;;;0.80;;
13204;SDS011;6667;52.634;9.226;2022-09-20T13:39:03;2.97;;;0.52;;
13204;SDS011;6667;52.634;9.226;2022-09-20T13:41:32;2.83;;;0.60;;
13204;SDS011;6667;52.634;9.226;2022-09-20T13:43:59;1.77;;;0.60;;
13204;SDS011;6667;52.634;9.226;2022-09-20T13:46:29;0.88;;;0.63;;
13204;SDS011;6667;52.634;9.226;2022-09-20T13:48:58;0.85;;;0.45;;
13204;SDS011;6667;52.634;9.226;2022-09-20T13:51:37;0.88;;;0.40;;
13204;SDS011;6667;52.634;9.226;2022-09-20T13:54:23;1.67;;;0.60;;
13204;SDS011;6667;52.634;9.226;2022-09-20T13:56:52;3.05;;;0.60;;
13204;SDS011;6667;52.634;9.226;2022-09-20T13:59:20;0.95;;;0.40;;
13204;SDS011;6667;52.634;9.226;2022-09-20T14:01:49;1.10;;;0.63;;
13204;SDS011;6667;52.634;9.226;2022-09-20T14:04:17;1.80;;;1.08;;
13204;SDS011;6667;52.634;9.226;2022-09-20T14:06:47;0.47;;;0.32;;
13204;SDS011;6667;52.634;9.226;2022-09-20T14:09:17;1.25;;;0.40;;
13204;SDS011;6667;52.634;9.226;2022-09-20T14:11:48;1.40;;;0.50;;
13204;SDS011;6667;52.634;9.226;2022-09-20T14:14:15;2.60;;;0.50;;
13204;SDS011;6667;52.634;9.226;2022-09-20T14:16:44;1.30;;;0.50;;
13204;SDS011;6667;52.634;9.226;2022-09-20T14:19:15;1.67;;;0.70;;
13204;SDS011;6667;52.634;9.226;2022-09-20T14:21:43;3.40;;;0.60;;
13204;SDS011;6667;52.634;9.226;2022-09-20T14:24:24;1.60;;;0.60;;
13204;SDS011;6667;52.634;9.226;2022-09-20T14:27:04;2.40;;;0.60;;
13204;SDS011;6667;52.634;9.226;2022-09-20T14:29:42;1.15;;;0.55;;
13204;SDS011;6667;52.634;9.226;2022-09-20T14:32:14;2.85;;;1.00;;
13204;SDS011;6667;52.634;9.226;2022-09-20T14:35:11;1.98;;;0.60;;
13204;SDS011;6667;52.634;9.226;2022-09-20T14:37:41;0.50;;;0.50;;
13204;SDS011;6667;52.634;9.226;2022-09-20T14:40:17;2.95;;;0.50;;
13204;SDS011;6667;52.634;9.226;2022-09-20T14:42:48;1.33;;;0.63;;
13204;SDS011;6667;52.634;9.226;2022-09-20T14:45:19;1.08;;;0.50;;
13204;SDS011;6667;52.634;9.226;2022-09-20T14:47:51;1.10;;;0.50;;
13204;SDS011;6667;52.634;9.226;2022-09-20T14:50:25;1.02;;;0.70;;
13204;SDS011;6667;52.634;9.226;2022-09-20T14:53:04;0.75;;;0.50;;
13204;SDS011;6667;52.634;9.226;2022-09-20T14:55:53;1.00;;;0.70;;
13204;SDS011;6667;52.634;9.226;2022-09-20T14:58:22;4.72;;;0.80;;
13204;SDS011;6667;52.634;9.226;2022-09-20T15:00:50;1.20;;;0.45;;
13204;SDS011;6667;52.634;9.226;2022-09-20T15:03:23;1.08;;;0.57;;
13204;SDS011;6667;52.634;9.226;2022-09-20T15:05:53;0.93;;;0.50;;
13204;SDS011;6667;52.634;9.226;2022-09-20T15:08:20;1.23;;;0.50;;
13204;SDS011;6667;52.634;9.226;2022-09-20T15:10:47;2.90;;;0.63;;
13204;SDS011;6667;52.634;9.226;2022-09-20T15:13:14;0.95;;;0.63;;
13204;SDS011;6667;52.634;9.226;2022-09-20T15:15:41;2.08;;;0.60;;
13204;SDS011;6667;52.634;9.226;2022-09-20T15:18:11;2.80;;;0.80;;
13204;SDS011;6667;52.634;9.226;2022-09-20T15:20:45;3.47;;;0.80;;
13204;SDS011;6667;52.634;9.226;2022-09-20T15:23:13;3.58;;;0.85;;
13204;SDS011;6667;52.634;9.226;2022-09-20T15:25:39;1.97;;;0.60;;
13204;SDS011;6667;52.634;9.226;2022-09-20T15:28:08;2.53;;;0.93;;
13204;SDS011;6667;52.634;9.226;2022-09-20T15:30:39;1.27;;;0.60;;
13204;SDS011;6667;52.634;9.226;2022-09-20T15:33:05;2.07;;;1.03;;
13204;SDS011;6667;52.634;9.226;2022-09-20T15:35:32;1.57;;;0.60;;
13204;SDS011;6667;52.634;9.226;2022-09-20T15:37:59;2.53;;;0.80;;
13204;SDS011;6667;52.634;9.226;2022-09-20T15:40:26;2.90;;;0.93;;
13204;SDS011;6667;52.634;9.226;2022-09-20T15:42:53;1.40;;;0.77;;
13204;SDS011;6667;52.634;9.226;2022-09-20T15:45:22;3.60;;;0.80;;
13204;SDS011;6667;52.634;9.226;2022-09-20T15:47:50;2.33;;;0.80;;
13204;SDS011;6667;52.634;9.226;2022-09-20T15:50:19;1.97;;;1.00;;
13204;SDS011;6667;52.634;9.226;2022-09-20T15:52:46;0.93;;;0.67;;
13204;SDS011;6667;52.634;9.226;2022-09-20T15:55:15;0.80;;;0.67;;
13204;SDS011;6667;52.634;9.226;2022-09-20T15:57:44;1.67;;;1.00;;
13204;SDS011;6667;52.634;9.226;2022-09-20T16:00:13;2.43;;;0.80;;
13204;SDS011;6667;52.634;9.226;2022-09-20T16:02:41;1.57;;;0.70;;
13204;SDS011;6667;52.634;9.226;2022-09-20T16:05:08;2.67;;;0.77;;
13204;SDS011;6667;52.634;9.226;2022-09-20T16:07:36;2.27;;;0.80;;
13204;SDS011;6667;52.634;9.226;2022-09-20T16:10:03;2.27;;;0.73;;
13204;SDS011;6667;52.634;9.226;2022-09-20T16:12:31;1.97;;;0.70;;
13204;SDS011;6667;52.634;9.226;2022-09-20T16:14:59;2.53;;;1.00;;
13204;SDS011;6667;52.634;9.226;2022-09-20T16:17:26;2.10;;;0.60;;
13204;SDS011;6667;52.634;9.226;2022-09-20T16:20:06;0.83;;;0.70;;
13204;SDS011;6667;52.634;9.226;2022-09-20T16:22:34;3.80;;;0.90;;
13204;SDS011;6667;52.634;9.226;2022-09-20T16:25:01;3.90;;;0.80;;
13204;SDS011;6667;52.634;9.226;2022-09-20T16:27:30;1.13;;;0.80;;
13204;SDS011;6667;52.634;9.226;2022-09-20T16:30:00;1.70;;;0.90;;
13204;SDS011;6667;52.634;9.226;2022-09-20T16:32:27;2.60;;;1.27;;
13204;SDS011;6667;52.634;9.226;2022-09-20T16:34:54;2.73;;;1.03;;
13204;SDS011;6667;52.634;9.226;2022-09-20T16:37:22;3.10;;;0.53;;
13204;SDS011;6667;52.634;9.226;2022-09-20T16:39:50;4.47;;;1.80;;
13204;SDS011;6667;52.634;9.226;2022-09-20T16:42:17;1.13;;;0.70;;
13204;SDS011;6667;52.634;9.226;2022-09-20T16:44:44;0.70;;;0.70;;
13204;SDS011;6667;52.634;9.226;2022-09-20T16:47:13;3.60;;;1.00;;
13204;SDS011;6667;52.634;9.226;2022-09-20T16:49:44;2.47;;;0.87;;
13204;SDS011;6667;52.634;9.226;2022-09-20T16:52:11;4.77;;;1.07;;
13204;SDS011;6667;52.634;9.226;2022-09-20T16:54:38;2.67;;;1.20;;
13204;SDS011;6667;52.634;9.226;2022-09-20T16:57:05;3.40;;;1.03;;
13204;SDS011;6667;52.634;9.226;2022-09-20T16:59:32;3.73;;;1.00;;
13204;SDS011;6667;52.634;9.226;2022-09-20T17:01:58;2.73;;;1.00;;
13204;SDS011;6667;52.634;9.226;2022-09-20T17:04:26;2.70;;;0.80;;
13204;SDS011;6667;52.634;9.226;2022-09-20T17:06:54;2.87;;;0.97;;
13204;SDS011;6667;52.634;9.226;2022-09-20T17:09:20;2.00;;;0.90;;
13204;SDS011;6667;52.634;9.226;2022-09-20T17:11:48;2.23;;;0.80;;
13204;SDS011;6667;52.634;9.226;2022-09-20T17:14:16;1.37;;;0.97;;
13204;SDS011;6667;52.634;9.226;2022-09-20T17:16:44;2.03;;;1.07;;
13204;SDS011;6667;52.634;9.226;2022-09-20T17:19:13;3.77;;;1.10;;
13204;SDS011;6667;52.634;9.226;2022-09-20T17:21:44;2.80;;;0.90;;
13204;SDS011;6667;52.634;9.226;2022-09-20T17:24:13;2.37;;;1.03;;
13204;SDS011;6667;52.634;9.226;2022-09-20T17:26:42;2.77;;;1.17;;
13204;SDS011;6667;52.634;9.226;2022-09-20T17:29:10;3.73;;;1.30;;
13204;SDS011;6667;52.634;9.226;2022-09-20T17:31:38;3.57;;;1.10;;
13204;SDS011;6667;52.634;9.226;2022-09-20T17:34:06;4.40;;;1.50;;
13204;SDS011;6667;52.634;9.226;2022-09-20T17:36:34;3.03;;;1.30;;
13204;SDS011;6667;52.634;9.226;2022-09-20T17:39:05;3.07;;;1.30;;
13204;SDS011;6667;52.634;9.226;2022-09-20T17:41:34;2.00;;;1.10;;
13204;SDS011;6667;52.634;9.226;2022-09-20T17:44:01;1.93;;;1.40;;
13204;SDS011;6667;52.634;9.226;2022-09-20T17:46:31;9.37;;;1.70;;
13204;SDS011;6667;52.634;9.226;2022-09-20T17:48:59;3.83;;;1.43;;
13204;SDS011;6667;52.634;9.226;2022-09-20T17:51:28;3.77;;;1.70;;
13204;SDS011;6667;52.634;9.226;2022-09-20T17:53:56;3.00;;;1.50;;
13204;SDS011;6667;52.634;9.226;2022-09-20T17:56:24;3.67;;;2.20;;
13204;SDS011;6667;52.634;9.226;2022-09-20T17:58:52;2.87;;;2.00;;
13204;SDS011;6667;52.634;9.226;2022-09-20T18:01:20;3.00;;;2.23;;
13204;SDS011;6667;52.634;9.226;2022-09-20T18:03:47;4.93;;;2.90;;
13204;SDS011;6667;52.634;9.226;2022-09-20T18:06:15;5.30;;;3.00;;
13204;SDS011;6667;52.634;9.226;2022-09-20T18:08:46;3.37;;;2.53;;
13204;SDS011;6667;52.634;9.226;2022-09-20T18:11:15;5.03;;;3.37;;
13204;SDS011;6667;52.634;9.226;2022-09-20T18:13:44;6.73;;;3.57;;
13204;SDS011;6667;52.634;9.226;2022-09-20T18:16:11;7.30;;;3.20;;
13204;SDS011;6667;52.634;9.226;2022-09-20T18:18:40;4.77;;;2.97;;
13204;SDS011;6667;52.634;9.226;2022-09-20T18:21:08;5.17;;;2.63;;
13204;SDS011;6667;52.634;9.226;2022-09-20T18:23:36;4.70;;;2.87;;
13204;SDS011;6667;52.634;9.226;2022-09-20T18:26:04;5.00;;;2.70;;
13204;SDS011;6667;52.634;9.226;2022-09-20T18:28:50;3.30;;;2.33;;
13204;SDS011;6667;52.634;9.226;2022-09-20T18:31:21;3.97;;;2.67;;
13204;SDS011;6667;52.634;9.226;2022-09-20T18:33:56;4.50;;;2.30;;
13204;SDS011;6667;52.634;9.226;2022-09-20T18:36:24;2.80;;;2.30;;
13204;SDS011;6667;52.634;9.226;2022-09-20T18:38:52;4.30;;;2.40;;
13204;SDS011;6667;52.634;9.226;2022-09-20T18:41:20;3.70;;;2.07;;
13204;SDS011;6667;52.634;9.226;2022-09-20T18:43:50;5.13;;;2.47;;
13204;SDS011;6667;52.634;9.226;2022-09-20T18:46:18;3.70;;;2.30;;
13204;SDS011;6667;52.634;9.226;2022-09-20T18:48:47;3.00;;;2.30;;
13204;SDS011;6667;52.634;9.226;2022-09-20T18:51:14;3.77;;;2.73;;
13204;SDS011;6667;52.634;9.226;2022-09-20T18:53:41;5.03;;;2.50;;
13204;SDS011;6667;52.634;9.226;2022-09-20T18:56:10;5.43;;;2.97;;
13204;SDS011;6667;52.634;9.226;2022-09-20T18:58:45;2.80;;;2.60;;
13204;SDS011;6667;52.634;9.226;2022-09-20T19:01:18;3.80;;;2.80;;
13204;SDS011;6667;52.634;9.226;2022-09-20T19:03:58;4.00;;;2.40;;
13204;SDS011;6667;52.634;9.226;2022-09-20T19:06:34;5.13;;;2.90;;
13204;SDS011;6667;52.634;9.226;2022-09-20T19:09:09;7.83;;;3.17;;
13204;SDS011;6667;52.634;9.226;2022-09-20T19:11:42;4.70;;;3.27;;
13204;SDS011;6667;52.634;9.226;2022-09-20T19:14:19;7.83;;;4.30;;
13204;SDS011;6667;52.634;9.226;2022-09-20T19:16:52;5.03;;;3.50;;
13204;SDS011;6667;52.634;9.226;2022-09-20T19:19:26;4.90;;;3.57;;
13204;SDS011;6667;52.634;9.226;2022-09-20T19:22:05;7.57;;;4.07;;
13204;SDS011;6667;52.634;9.226;2022-09-20T19:24:47;4.70;;;3.30;;
13204;SDS011;6667;52.634;9.226;2022-09-20T19:27:26;5.30;;;3.53;;
13204;SDS011;6667;52.634;9.226;2022-09-20T19:29:53;4.80;;;3.63;;
13204;SDS011;6667;52.634;9.226;2022-09-20T19:32:22;5.93;;;3.83;;
13204;SDS011;6667;52.634;9.226;2022-09-20T19:34:51;4.00;;;3.40;;
13204;SDS011;6667;52.634;9.226;2022-09-20T19:37:22;6.33;;;3.63;;
13204;SDS011;6667;52.634;9.226;2022-09-20T19:39:58;4.10;;;3.60;;
13204;SDS011;6667;52.634;9.226;2022-09-20T19:42:33;4.77;;;3.43;;
13204;SDS011;6667;52.634;9.226;2022-09-20T19:45:10;4.57;;;4.00;;
13204;SDS011;6667;52.634;9.226;2022-09-20T19:47:48;5.10;;;4.03;;
13204;SDS011;6667;52.634;9.226;2022-09-20T19:50:22;6.03;;;3.83;;
13204;SDS011;6667;52.634;9.226;2022-09-20T19:52:57;5.33;;;3.30;;
13204;SDS011;6667;52.634;9.226;2022-09-20T19:55:26;4.17;;;3.30;;
13204;SDS011;6667;52.634;9.226;2022-09-20T19:57:53;5.93;;;3.83;;
13204;SDS011;6667;52.634;9.226;2022-09-20T20:00:21;6.97;;;4.37;;
13204;SDS011;6667;52.634;9.226;2022-09-20T20:02:49;9.23;;;5.60;;
13204;SDS011;6667;52.634;9.226;2022-09-20T20:05:18;10.33;;;5.93;;
13204;SDS011;6667;52.634;9.226;2022-09-20T20:07:50;9.47;;;5.27;;
13204;SDS011;6667;52.634;9.226;2022-09-20T20:10:29;8.47;;;5.13;;
13204;SDS011;6667;52.634;9.226;2022-09-20T20:13:04;8.20;;;5.03;;
13204;SDS011;6667;52.634;9.226;2022-09-20T20:15:58;6.87;;;4.10;;
13204;SDS011;6667;52.634;9.226;2022-09-20T20:18:30;5.23;;;3.37;;
13204;SDS011;6667;52.634;9.226;2022-09-20T20:21:04;5.27;;;3.40;;
13204;SDS011;6667;52.634;9.226;2022-09-20T20:23:40;5.10;;;2.83;;
13204;SDS011;6667;52.634;9.226;2022-09-20T20:26:16;3.40;;;3.00;;
13204;SDS011;6667;52.634;9.226;2022-09-20T20:28:44;4.37;;;2.93;;
13204;SDS011;6667;52.634;9.226;2022-09-20T20:31:11;3.70;;;2.90;;
13204;SDS011;6667;52.634;9.226;2022-09-20T20:33:40;7.03;;;3.53;;